Time;durP1;ratioP1;P1;durP2;ratioP2;P2;SDS_P1;SDS_P2;PMS_P1;PMS_P2;Temp;Humidity;BMP_temperature;BMP_pressure;BME280_temperature;BME280_humidity;BME280_pressure;Samples;Min_cycle;Max_cycle;Signal;HPM_P1;HPM_P2
2022/11/15 00:00:51;;;;;;;8.10;6.10;;;;;;;12.62;70.13;99622.81;4993332;28;20069;-77
2022/11/15 00:03:20;;;;;;;12.25;6.20;;;;;;;12.70;69.56;99616.28;4992840;28;20054;-78
2022/11/15 00:05:48;;;;;;;9.98;6.07;;;;;;;12.68;69.95;99620.59;4992899;28;20066;-77
2022/11/15 00:08:20;;;;;;;7.90;5.85;;;;;;;12.72;71.00;99618.72;4993234;28;20054;-77
2022/11/15 00:10:55;;;;;;;8.13;6.05;;;;;;;12.81;70.41;99627.81;4993451;28;20062;-77
2022/11/15 00:13:24;;;;;;;7.30;5.55;;;;;;;12.87;70.82;99608.81;4993522;28;20054;-77
2022/11/15 00:15:52;;;;;;;9.60;6.15;;;;;;;12.95;70.24;99607.88;4993738;28;20058;-77
2022/11/15 00:18:21;;;;;;;9.00;5.82;;;;;;;12.94;70.39;99609.06;5001233;28;20058;-77
2022/11/15 00:20:53;;;;;;;9.10;6.07;;;;;;;13.05;70.13;99609.38;5012951;28;20495;-77
2022/11/15 00:23:22;;;;;;;8.40;5.93;;;;;;;12.93;70.79;99608.22;5013144;28;20488;-77
2022/11/15 00:25:57;;;;;;;7.95;5.88;;;;;;;13.00;70.49;99613.25;5014437;28;20053;-77
2022/11/15 00:28:27;;;;;;;9.50;5.93;;;;;;;13.09;70.02;99611.09;5012537;28;20054;-78
2022/11/15 00:31:02;;;;;;;8.43;5.78;;;;;;;13.16;69.48;99611.31;5019240;28;20049;-78
2022/11/15 00:33:29;;;;;;;9.70;6.13;;;;;;;13.16;70.41;99613.31;5033873;28;20047;-77
2022/11/15 00:36:04;;;;;;;9.18;5.93;;;;;;;13.15;70.72;99595.72;5037787;28;20046;-79
2022/11/15 00:38:34;;;;;;;8.63;6.07;;;;;;;13.28;69.66;99601.28;5051952;28;20053;-77
2022/11/15 00:41:03;;;;;;;8.38;5.53;;;;;;;13.25;69.86;99596.38;5047555;28;20055;-77
2022/11/15 00:43:35;;;;;;;8.25;5.95;;;;;;;13.33;69.29;99604.69;5032310;28;20061;-80
2022/11/15 00:46:02;;;;;;;8.65;5.60;;;;;;;13.33;70.06;99603.84;5030967;28;20042;-79
2022/11/15 00:48:33;;;;;;;7.68;6.28;;;;;;;13.40;69.08;99607.69;5037529;28;20040;-77
2022/11/15 00:51:00;;;;;;;10.65;6.90;;;;;;;13.46;69.92;99608.25;5034831;28;20040;-80
2022/11/15 00:53:28;;;;;;;7.47;5.93;;;;;;;13.57;68.69;99597.38;5037872;28;20060;-79
2022/11/15 00:55:55;;;;;;;8.32;5.57;;;;;;;13.56;69.28;99598.53;5024894;28;20046;-77
2022/11/15 00:58:25;;;;;;;6.93;5.45;;;;;;;13.67;68.15;99596.88;5039745;28;20050;-77
2022/11/15 01:00:57;;;;;;;8.07;6.18;;;;;;;13.75;68.70;99607.09;5028660;28;20041;-78
2022/11/15 01:03:24;;;;;;;7.38;6.22;;;;;;;13.77;67.96;99610.34;5047076;28;20038;-78
2022/11/15 01:05:51;;;;;;;9.00;5.88;;;;;;;13.76;69.09;99593.91;5032819;28;20441;-77
2022/11/15 01:08:19;;;;;;;7.95;5.80;;;;;;;13.90;67.61;99605.50;5031529;28;20420;-77
2022/11/15 01:10:46;;;;;;;7.70;6.03;;;;;;;13.83;67.55;99615.69;5026472;28;20053;-77
2022/11/15 01:13:13;;;;;;;8.73;5.97;;;;;;;13.83;68.59;99605.28;5030350;28;20430;-78
2022/11/15 01:15:42;;;;;;;6.82;5.38;;;;;;;13.95;67.57;99590.41;5030542;28;20060;-78
2022/11/15 01:18:11;;;;;;;8.23;6.43;;;;;;;13.93;67.53;99587.16;5031849;28;20060;-78
2022/11/15 01:20:43;;;;;;;9.15;6.90;;;;;;;13.98;67.46;99593.31;5033839;28;20729;-77
2022/11/15 01:23:15;;;;;;;10.38;6.78;;;;;;;14.02;67.26;99607.41;5032507;28;20053;-78
2022/11/15 01:25:42;;;;;;;8.73;6.47;;;;;;;13.97;68.45;99600.06;5029738;28;20056;-77
2022/11/15 01:28:09;;;;;;;8.40;6.10;;;;;;;14.00;67.71;99601.34;5032696;28;20053;-77
2022/11/15 01:30:37;;;;;;;7.13;5.55;;;;;;;14.07;67.57;99604.34;5029734;28;20061;-77
2022/11/15 01:33:04;;;;;;;9.93;6.70;;;;;;;14.02;67.92;99601.78;5032801;28;20056;-78
2022/11/15 01:35:33;;;;;;;9.90;6.22;;;;;;;14.02;67.69;99607.41;5028244;28;20069;-78
2022/11/15 01:38:00;;;;;;;11.67;6.70;;;;;;;14.06;67.27;99585.91;5028340;28;20053;-78
2022/11/15 01:40:31;;;;;;;8.15;6.22;;;;;;;14.11;67.08;99596.03;5034398;28;20063;-79
2022/11/15 01:42:59;;;;;;;7.50;6.22;;;;;;;14.25;67.03;99593.59;5033554;28;20060;-78
2022/11/15 01:45:27;;;;;;;9.05;6.82;;;;;;;14.07;67.29;99593.16;5032887;28;20057;-79
2022/11/15 01:47:56;;;;;;;9.23;6.60;;;;;;;14.10;67.48;99584.00;5029825;28;20509;-78
2022/11/15 01:50:28;;;;;;;10.60;5.93;;;;;;;14.18;66.19;99579.41;5031654;28;20053;-78
2022/11/15 01:52:56;;;;;;;8.52;6.80;;;;;;;14.11;66.41;99580.06;5036246;28;20059;-78
2022/11/15 01:55:27;;;;;;;10.82;5.82;;;;;;;14.23;66.06;99576.34;5035252;28;20054;-77
2022/11/15 01:58:01;;;;;;;8.07;6.45;;;;;;;14.26;66.85;99574.78;5025181;28;20060;-78
2022/11/15 02:00:29;;;;;;;9.85;6.38;;;;;;;14.21;66.99;99565.53;5027856;28;20054;-77
2022/11/15 02:02:58;;;;;;;9.30;6.93;;;;;;;14.18;66.19;99566.22;5031795;28;20053;-78
2022/11/15 02:05:28;;;;;;;7.75;5.57;;;;;;;14.13;66.74;99569.31;5017677;28;20411;-78
2022/11/15 02:07:57;;;;;;;9.60;6.20;;;;;;;14.18;66.23;99566.22;5014944;28;20057;-78
2022/11/15 02:10:28;;;;;;;7.53;5.95;;;;;;;14.04;67.09;99554.66;5001164;28;20060;-78
2022/11/15 02:12:59;;;;;;;7.63;5.85;;;;;;;13.97;67.15;99560.88;5015896;28;20479;-78
2022/11/15 02:15:38;;;;;;;9.45;6.85;;;;;;;14.00;67.49;99562.94;5022633;28;20057;-78
2022/11/15 02:18:16;;;;;;;7.90;6.07;;;;;;;13.80;67.23;99562.03;5017739;28;20046;-78
2022/11/15 02:21:20;;;;;;;8.68;6.13;;;;;;;13.90;67.96;99565.47;5011318;28;20058;-78
2022/11/15 02:24:30;;;;;;;8.00;6.13;;;;;;;13.85;67.75;99563.75;4957146;28;20207;-78
2022/11/15 02:27:30;;;;;;;9.73;6.47;;;;;;;13.80;67.58;99555.63;5012792;28;20057;-78
2022/11/15 02:30:23;;;;;;;11.40;6.80;;;;;;;13.79;68.67;99554.00;5018660;28;20052;-78
2022/11/15 02:32:56;;;;;;;9.38;5.93;;;;;;;13.74;67.91;99552.28;5024320;28;20049;-78
2022/11/15 02:35:35;;;;;;;9.05;6.88;;;;;;;13.64;68.36;99551.97;5011730;28;20053;-78
2022/11/15 02:38:09;;;;;;;11.52;6.65;;;;;;;13.71;68.13;99552.16;5021404;28;20080;-78
2022/11/15 02:40:43;;;;;;;10.93;6.80;;;;;;;13.60;68.31;99547.09;5021023;28;20061;-78
2022/11/15 02:46:04;;;;;;;10.10;6.60;;;;;;;13.59;69.35;99550.25;5030794;28;20061;-77
2022/11/15 02:48:36;;;;;;;8.38;6.20;;;;;;;13.63;69.97;99542.78;5022009;28;20437;-78
2022/11/15 02:51:04;;;;;;;11.07;6.65;;;;;;;13.63;68.86;99534.38;5013268;28;20050;-79
2022/11/15 02:53:32;;;;;;;9.40;6.10;;;;;;;13.76;69.37;99527.53;5013245;28;20073;-78
2022/11/15 02:56:01;;;;;;;8.75;5.93;;;;;;;13.81;69.48;99534.84;5020014;28;20061;-78
2022/11/15 02:59:07;;;;;;;8.20;5.63;;;;;;;13.67;69.73;99526.91;5009225;28;20068;-78
2022/11/15 03:01:42;;;;;;;7.40;6.10;;;;;;;13.82;69.54;99525.28;5018226;28;20069;-78
2022/11/15 03:04:23;;;;;;;8.55;6.32;;;;;;;13.87;68.78;99524.22;5016293;28;20532;-79
2022/11/15 03:06:59;;;;;;;9.90;6.35;;;;;;;13.85;69.52;99534.94;5025753;28;20061;-78
2022/11/15 03:09:35;;;;;;;10.00;5.95;;;;;;;13.90;69.06;99526.28;5029229;28;20061;-78
2022/11/15 03:12:10;;;;;;;7.32;5.57;;;;;;;14.01;68.42;99532.97;5031799;28;20056;-80
2022/11/15 03:14:48;;;;;;;7.93;5.68;;;;;;;14.08;68.25;99516.34;5013871;28;20064;-79
2022/11/15 03:17:20;;;;;;;8.77;6.07;;;;;;;14.10;67.82;99530.81;5038515;28;20052;-78
2022/11/15 03:19:51;;;;;;;8.43;4.57;;;;;;;14.06;68.50;99529.09;5027936;28;20081;-78
2022/11/15 03:22:22;;;;;;;7.88;5.35;;;;;;;14.04;69.44;99535.03;5028063;28;20091;-78
2022/11/15 03:24:54;;;;;;;5.50;4.63;;;;;;;14.08;68.63;99527.56;5027766;28;20053;-78
2022/11/15 03:27:26;;;;;;;7.43;4.70;;;;;;;14.15;68.71;99527.75;5025546;28;20060;-78
2022/11/15 03:30:00;;;;;;;5.88;4.70;;;;;;;14.14;69.22;99537.31;5028463;28;20072;-78
2022/11/15 03:32:31;;;;;;;6.88;4.85;;;;;;;14.12;68.29;99527.66;5032575;28;20450;-78
2022/11/15 03:35:05;;;;;;;6.38;4.70;;;;;;;14.16;68.34;99534.16;5026090;28;20054;-78
2022/11/15 03:37:38;;;;;;;5.30;4.70;;;;;;;14.19;67.77;99531.47;5031346;28;20057;-78
2022/11/15 03:40:07;;;;;;;5.10;4.45;;;;;;;14.10;69.33;99546.81;5032242;28;20409;-78
2022/11/15 03:42:43;;;;;;;6.03;4.60;;;;;;;14.09;69.74;99532.00;5031127;28;20053;-77
2022/11/15 03:45:16;;;;;;;8.45;4.50;;;;;;;14.24;68.94;99541.56;5030576;28;20480;-78
2022/11/15 03:47:51;;;;;;;7.72;4.72;;;;;;;14.08;69.37;99533.16;5022878;28;20495;-77
2022/11/15 03:50:23;;;;;;;6.32;4.18;;;;;;;14.14;68.57;99531.72;5022416;28;20064;-77
2022/11/15 03:52:51;;;;;;;6.47;4.70;;;;;;;14.19;69.06;99523.06;5024952;28;20056;-78
2022/11/15 03:55:21;;;;;;;5.47;4.35;;;;;;;14.27;68.62;99534.41;5023610;28;20084;-78
2022/11/15 03:57:52;;;;;;;5.80;4.63;;;;;;;14.29;68.20;99534.88;5030767;28;20049;-80
2022/11/15 04:00:24;;;;;;;9.05;4.43;;;;;;;14.29;68.69;99532.06;5033412;28;20053;-80
2022/11/15 04:02:51;;;;;;;4.97;4.03;;;;;;;14.28;68.30;99513.63;5022496;28;20061;-80
2022/11/15 04:05:24;;;;;;;6.75;4.90;;;;;;;14.48;68.03;99514.50;5020339;28;20422;-81
2022/11/15 04:08:04;;;;;;;5.82;4.70;;;;;;;14.45;67.13;99512.41;5029639;28;20050;-80
2022/11/15 04:13:41;;;;;;;5.53;4.70;;;;;;;14.40;67.96;99497.53;5020948;28;20053;-81
2022/11/15 04:16:35;;;;;;;5.50;4.50;;;;;;;14.47;68.32;99496.06;5020743;28;20050;-81
2022/11/15 04:28:18;;;;;;;7.78;5.50;;;;;;;14.39;67.07;99501.50;5033597;28;20501;-80
2022/11/15 04:39:34;;;;;;;5.63;4.90;;;;;;;14.59;67.38;99505.22;5031989;28;20056;-80
2022/11/15 04:42:02;;;;;;;6.30;4.90;;;;;;;14.51;67.43;99503.41;5033920;28;20061;-79
2022/11/15 04:44:30;;;;;;;6.68;4.68;;;;;;;14.46;66.74;99503.66;5028138;28;20096;-80
2022/11/15 04:46:57;;;;;;;5.68;4.95;;;;;;;14.60;67.14;99503.22;5033027;28;20532;-80
2022/11/15 04:49:25;;;;;;;6.50;5.05;;;;;;;14.42;67.16;99497.16;5040672;28;20068;-81
2022/11/15 04:51:52;;;;;;;5.57;5.05;;;;;;;14.26;67.62;99519.59;5031609;28;20053;-80
2022/11/15 04:54:19;;;;;;;6.97;5.35;;;;;;;14.37;68.05;99505.84;5030668;28;20061;-79
2022/11/15 04:56:49;;;;;;;6.82;4.70;;;;;;;14.53;67.01;99503.84;5024904;28;20073;-79
2022/11/15 04:59:16;;;;;;;;;;;;;;;14.46;67.09;99498.06;5027447;28;20498;-80
2022/11/15 05:01:45;;;;;;;7.05;5.18;;;;;;;14.44;68.04;99508.81;5035354;28;19929;-80
2022/11/15 05:04:20;;;;;;;6.00;4.80;;;;;;;14.52;68.26;99507.81;5023411;28;20066;-80
2022/11/15 05:06:49;;;;;;;6.18;5.03;;;;;;;14.52;68.10;99510.63;5021415;28;20076;-80
2022/11/15 05:09:16;;;;;;;5.60;4.95;;;;;;;14.58;66.85;99500.78;5026343;28;20056;-80
2022/11/15 05:11:44;;;;;;;5.40;4.78;;;;;;;14.42;67.51;99497.16;5029657;28;20053;-81
2022/11/15 05:14:13;;;;;;;7.20;4.60;;;;;;;14.57;67.33;99498.34;5030692;28;20057;-80
2022/11/15 05:16:40;;;;;;;5.68;4.55;;;;;;;14.39;68.07;99506.31;5034104;28;20422;-81
2022/11/15 05:19:09;;;;;;;6.43;4.80;;;;;;;14.45;68.68;99496.44;5033433;28;20045;-81
2022/11/15 05:21:37;;;;;;;5.30;4.78;;;;;;;14.39;68.27;99507.13;5034515;28;20077;-80
2022/11/15 05:24:05;;;;;;;6.10;4.93;;;;;;;14.46;68.42;99506.47;5032291;28;20425;-81
2022/11/15 05:26:34;;;;;;;6.63;4.45;;;;;;;14.55;67.55;99506.25;5031613;28;20060;-81
2022/11/15 05:29:01;;;;;;;5.93;4.63;;;;;;;14.56;67.15;99513.53;5034689;28;20050;-81
2022/11/15 05:31:30;;;;;;;5.65;4.40;;;;;;;14.44;68.37;99517.22;5036764;28;20072;-81
2022/11/15 05:33:59;;;;;;;5.40;4.28;;;;;;;14.46;67.30;99512.06;5031411;28;20053;-80
2022/11/15 05:36:32;;;;;;;5.63;4.57;;;;;;;14.36;68.47;99504.22;5030333;28;20402;-81
2022/11/15 05:39:02;;;;;;;6.82;4.80;;;;;;;14.40;68.93;99510.72;5031482;28;20485;-81
2022/11/15 05:41:34;;;;;;;6.00;4.10;;;;;;;14.35;68.75;99506.22;5033798;28;20057;-80
2022/11/15 05:44:04;;;;;;;5.20;4.30;;;;;;;14.41;68.76;99501.16;5032999;28;20053;-81
2022/11/15 05:46:34;;;;;;;6.20;3.80;;;;;;;14.34;68.03;99500.97;5029215;28;20395;-81
2022/11/15 05:49:01;;;;;;;;;;;;;;;14.44;68.45;99494.00;5030840;28;20057;-81
2022/11/15 05:51:30;;;;;;;5.47;3.90;;;;;;;14.40;67.99;99488.31;5039044;28;20298;-81
2022/11/15 05:53:59;;;;;;;4.32;3.78;;;;;;;14.41;68.19;99496.34;5027649;28;20050;-81
2022/11/15 05:56:27;;;;;;;4.03;3.55;;;;;;;14.34;68.58;99489.75;5024142;28;20510;-81
2022/11/15 05:58:55;;;;;;;4.90;3.63;;;;;;;14.29;68.96;99490.06;5031110;28;20057;-81
2022/11/15 06:01:22;;;;;;;7.53;4.80;;;;;;;14.07;68.73;99492.34;5027555;28;20058;-81
2022/11/15 06:03:51;;;;;;;5.45;3.55;;;;;;;14.08;69.21;99482.75;5028500;28;20559;-81
2022/11/15 06:06:18;;;;;;;4.18;3.28;;;;;;;14.13;68.95;99492.84;5027100;28;20061;-81
2022/11/15 06:08:47;;;;;;;4.57;3.50;;;;;;;14.05;69.11;99491.06;5033145;28;20054;-80
2022/11/15 06:11:15;;;;;;;4.97;3.70;;;;;;;14.10;69.04;99497.19;5031230;28;20064;-81
2022/11/15 06:13:42;;;;;;;4.53;3.70;;;;;;;14.15;69.91;99498.91;5031874;28;20049;-81
2022/11/15 06:16:09;;;;;;;5.40;3.70;;;;;;;14.02;69.65;99501.81;5029835;28;20064;-81
2022/11/15 06:18:38;;;;;;;5.32;3.28;;;;;;;14.01;69.05;99504.97;5029615;28;20076;-81
2022/11/15 06:21:07;;;;;;;4.13;3.42;;;;;;;13.95;70.34;99512.84;5034269;28;20053;-81
2022/11/15 06:23:37;;;;;;;4.00;3.25;;;;;;;14.02;69.87;99507.41;5032246;28;20056;-81
2022/11/15 06:26:05;;;;;;;2.90;2.60;;;;;;;14.04;69.24;99511.84;5033258;28;20493;-80
2022/11/15 06:28:33;;;;;;;3.78;3.03;;;;;;;14.14;68.95;99514.09;5038391;28;20057;-80
2022/11/15 06:31:04;;;;;;;4.00;2.83;;;;;;;14.23;69.45;99511.13;5031392;28;20145;-80
2022/11/15 06:33:31;;;;;;;3.38;2.83;;;;;;;14.33;68.86;99518.97;5029086;28;20501;-77
2022/11/15 06:36:02;;;;;;;4.80;2.47;;;;;;;14.31;67.49;99524.13;5029749;28;20057;-83
2022/11/15 06:38:31;;;;;;;5.57;3.45;;;;;;;14.40;68.06;99525.56;5032135;28;20057;-81
2022/11/15 06:41:02;;;;;;;3.08;2.58;;;;;;;14.30;67.84;99522.47;5030207;28;20494;-81
2022/11/15 06:43:30;;;;;;;4.47;2.53;;;;;;;14.33;67.73;99530.97;5032176;28;20054;-84
2022/11/15 06:45:59;;;;;;;2.53;2.15;;;;;;;14.41;67.82;99531.97;5026978;28;20434;-80
2022/11/15 06:48:27;;;;;;;4.15;2.60;;;;;;;14.36;67.45;99535.03;5030032;28;20053;-80
2022/11/15 06:50:54;;;;;;;2.90;2.30;;;;;;;14.38;66.75;99535.47;5028745;28;20072;-81
2022/11/15 06:53:22;;;;;;;3.08;2.22;;;;;;;14.44;67.01;99527.63;5031180;28;20489;-80
2022/11/15 06:55:51;;;;;;;3.75;2.10;;;;;;;14.41;66.64;99526.38;5031586;28;20061;-82
2022/11/15 06:58:18;;;;;;;3.17;2.10;;;;;;;14.38;66.07;99532.69;5031913;28;20115;-81
2022/11/15 07:00:45;;;;;;;2.97;2.00;;;;;;;14.37;66.76;99528.28;5032328;28;20056;-82
2022/11/15 07:03:13;;;;;;;2.65;2.00;;;;;;;14.44;65.87;99533.22;5032949;28;20385;-79
2022/11/15 07:05:40;;;;;;;3.65;1.77;;;;;;;14.47;66.42;99538.09;5030891;28;20052;-80
2022/11/15 07:08:08;;;;;;;3.92;1.67;;;;;;;14.59;65.77;99544.47;5025230;28;20053;-80
2022/11/15 07:10:35;;;;;;;2.38;1.77;;;;;;;14.54;64.78;99549.50;5026613;28;20391;-80
2022/11/15 07:13:04;;;;;;;3.88;2.13;;;;;;;14.68;65.01;99549.03;5030553;28;20057;-80
2022/11/15 07:15:31;;;;;;;3.75;2.08;;;;;;;14.63;65.33;99557.72;5030058;28;20053;-80
2022/11/15 07:18:01;;;;;;;2.50;1.80;;;;;;;14.71;64.00;99548.31;5024765;28;20061;-80
2022/11/15 07:20:29;;;;;;;4.03;1.80;;;;;;;14.67;64.97;99562.22;5030568;28;20057;-80
2022/11/15 07:23:01;;;;;;;2.83;1.73;;;;;;;14.50;64.31;99555.00;5030948;28;20053;-80
2022/11/15 07:25:28;;;;;;;2.60;1.90;;;;;;;14.59;64.63;99561.28;5029215;28;20061;-80
2022/11/15 07:27:56;;;;;;;3.80;1.90;;;;;;;14.58;63.80;99564.44;5028698;28;20058;-80
2022/11/15 07:30:26;;;;;;;2.35;2.00;;;;;;;14.51;65.24;99565.03;5022590;28;20486;-81
2022/11/15 07:32:55;;;;;;;3.40;1.70;;;;;;;14.51;64.87;99565.03;5030252;28;20498;-80
2022/11/15 07:35:22;;;;;;;3.17;1.88;;;;;;;14.61;64.22;99570.13;5031896;28;20057;-80
2022/11/15 07:37:56;;;;;;;4.03;2.22;;;;;;;14.40;65.46;99566.75;5031124;28;20430;-78
2022/11/15 07:40:24;;;;;;;3.22;2.20;;;;;;;14.53;66.72;99565.50;5025347;28;20061;-75
2022/11/15 07:42:53;;;;;;;2.75;1.90;;;;;;;14.48;65.02;99568.56;5006499;28;20064;-77
2022/11/15 07:45:30;;;;;;;3.22;1.90;;;;;;;14.63;63.50;99571.75;5016648;28;20065;-82
2022/11/15 07:47:57;;;;;;;2.55;1.60;;;;;;;14.95;61.57;99572.47;5019200;28;20057;-81
2022/11/15 07:50:25;;;;;;;2.95;1.90;;;;;;;14.95;61.07;99573.31;5017861;28;20073;-80
2022/11/15 07:52:56;;;;;;;2.08;1.42;;;;;;;15.04;59.96;99573.09;5020538;28;20521;-80
2022/11/15 07:55:23;;;;;;;2.35;1.38;;;;;;;14.97;60.56;99570.13;5024613;28;20059;-79
2022/11/15 07:57:50;;;;;;;2.97;1.60;;;;;;;15.32;59.85;99572.88;5018211;28;20426;-80
2022/11/15 08:00:19;;;;;;;2.40;1.50;;;;;;;15.54;58.98;99570.50;5025711;28;20062;-79
2022/11/15 08:02:47;;;;;;;2.17;1.50;;;;;;;15.51;58.65;99585.31;5019379;28;20065;-79
2022/11/15 08:05:15;;;;;;;3.03;1.67;;;;;;;15.43;57.81;99581.53;5018443;28;20057;-79
2022/11/15 08:07:42;;;;;;;1.80;1.50;;;;;;;15.37;57.31;99586.66;5014658;28;20053;-80
2022/11/15 08:10:11;;;;;;;3.53;1.70;;;;;;;15.34;58.34;99581.75;5018119;28;20075;-80
2022/11/15 08:12:38;;;;;;;1.50;1.05;;;;;;;15.67;57.06;99576.81;5018605;28;20421;-80
2022/11/15 08:15:07;;;;;;;2.13;1.30;;;;;;;16.05;55.83;99564.72;5017014;28;20064;-81
2022/11/15 08:17:34;;;;;;;2.42;1.20;;;;;;;16.39;55.08;99562.09;5021381;28;20057;-81
2022/11/15 08:20:04;;;;;;;1.73;1.13;;;;;;;16.52;54.00;99571.94;5015654;28;20050;-81
2022/11/15 08:22:32;;;;;;;2.40;1.30;;;;;;;16.63;52.98;99558.88;5020911;28;20060;-81
2022/11/15 08:24:59;;;;;;;2.30;1.58;;;;;;;17.97;50.46;99569.88;5022562;28;20061;-82
2022/11/15 08:27:27;;;;;;;2.78;1.63;;;;;;;18.21;48.99;99552.41;5019725;28;20053;-84
2022/11/15 08:29:54;;;;;;;2.17;1.00;;;;;;;19.27;46.61;99553.56;5023875;28;20053;-79
2022/11/15 08:32:21;;;;;;;2.35;1.10;;;;;;;19.84;44.69;99550.19;5027180;28;20430;-80
2022/11/15 08:34:49;;;;;;;2.03;1.40;;;;;;;19.80;44.98;99569.16;5017322;28;20176;-81
2022/11/15 08:37:17;;;;;;;2.72;1.30;;;;;;;20.24;43.50;99561.53;5021401;28;20074;-80
2022/11/15 08:39:45;;;;;;;1.92;1.10;;;;;;;20.76;42.31;99553.47;5018888;28;20065;-82
2022/11/15 08:42:13;;;;;;;2.60;1.10;;;;;;;20.46;43.35;99553.88;5021280;28;20061;-81
2022/11/15 08:44:40;;;;;;;2.20;1.70;;;;;;;20.08;43.52;99559.09;5023764;28;20068;-81
2022/11/15 08:47:07;;;;;;;2.20;1.20;;;;;;;19.77;44.41;99560.66;5020134;28;20049;-82
2022/11/15 08:49:35;;;;;;;2.13;1.30;;;;;;;20.24;42.83;99551.06;5015875;28;20057;-83
2022/11/15 08:52:03;;;;;;;4.65;1.33;;;;;;;20.27;42.58;99561.53;5018828;28;20084;-81
2022/11/15 08:54:32;;;;;;;1.95;1.00;;;;;;;20.49;42.73;99544.56;5020915;28;20068;-81
2022/11/15 08:56:59;;;;;;;2.73;1.20;;;;;;;19.96;43.05;99565.94;5019906;28;20053;-81
2022/11/15 08:59:26;;;;;;;1.85;1.20;;;;;;;20.38;42.73;99543.78;5019988;28;20491;-82
2022/11/15 09:01:54;;;;;;;2.33;1.10;;;;;;;20.56;42.67;99544.59;5016948;28;20077;-79
2022/11/15 09:04:21;;;;;;;1.98;1.13;;;;;;;20.34;42.90;99545.78;5018381;28;20061;-77
2022/11/15 09:06:48;;;;;;;3.40;1.17;;;;;;;19.59;43.83;99540.78;5022458;28;20072;-80
2022/11/15 09:09:15;;;;;;;2.42;1.38;;;;;;;20.24;42.71;99541.72;5018244;28;20062;-80
2022/11/15 09:11:44;;;;;;;2.90;1.58;;;;;;;20.25;42.91;99535.69;5021160;28;20064;-80
2022/11/15 09:14:12;;;;;;;2.08;1.20;;;;;;;20.46;42.12;99539.75;5019331;28;20473;-84
2022/11/15 09:16:40;;;;;;;1.88;1.33;;;;;;;20.96;40.87;99542.53;5024184;28;20054;-81
2022/11/15 09:19:07;;;;;;;2.22;1.30;;;;;;;20.41;41.89;99540.94;5023909;28;20053;-82
2022/11/15 09:21:34;;;;;;;2.13;1.10;;;;;;;20.25;41.80;99540.53;5025327;28;20057;-80
2022/11/15 09:24:04;;;;;;;1.85;1.30;;;;;;;19.36;44.19;99543.91;5016983;28;20061;-86
2022/11/15 09:26:31;;;;;;;2.38;1.10;;;;;;;19.64;43.69;99541.19;5026429;28;20053;-81
2022/11/15 09:29:01;;;;;;;2.15;1.30;;;;;;;19.17;44.54;99543.06;5026916;28;20072;-82
2022/11/15 09:31:29;;;;;;;2.22;1.15;;;;;;;19.45;43.77;99533.88;5018281;28;20057;-83
2022/11/15 09:33:56;;;;;;;2.05;1.17;;;;;;;19.34;44.17;99535.88;5027073;28;20053;-83
2022/11/15 09:36:24;;;;;;;3.53;1.10;;;;;;;19.36;44.44;99536.28;5022269;28;20057;-84
2022/11/15 09:38:51;;;;;;;2.90;1.23;;;;;;;20.06;42.78;99531.22;5023531;28;20050;-79
2022/11/15 09:41:44;;;;;;;1.90;1.30;;;;;;;19.77;42.45;99527.53;5027627;28;20514;-78
2022/11/15 09:44:30;;;;;;;2.30;1.17;;;;;;;19.52;43.17;99521.00;5021788;28;20057;-81
2022/11/15 09:47:03;;;;;;;3.08;1.30;;;;;;;19.39;43.80;99518.53;5019487;28;20065;-81
2022/11/15 09:49:32;;;;;;;2.80;1.27;;;;;;;19.66;43.48;99510.53;5019541;28;20053;-81
2022/11/15 09:52:00;;;;;;;1.75;1.10;;;;;;;19.58;43.41;99513.75;5027863;28;20053;-81
2022/11/15 09:54:31;;;;;;;1.52;1.02;;;;;;;19.51;43.64;99519.34;5024615;28;20421;-83
2022/11/15 09:57:06;;;;;;;2.20;1.17;;;;;;;19.76;43.00;99520.28;5022693;28;20053;-81
2022/11/15 09:59:50;;;;;;;2.20;1.25;;;;;;;19.18;43.29;99519.25;5021238;28;20065;-82
2022/11/15 10:02:34;;;;;;;3.25;1.20;;;;;;;19.73;42.70;99529.56;5025507;28;20057;-82
2022/11/15 10:05:02;;;;;;;2.00;1.00;;;;;;;19.18;43.29;99519.25;5025349;28;20057;-82
2022/11/15 10:07:36;;;;;;;1.58;0.90;;;;;;;20.05;41.45;99528.78;5034815;28;20053;-80
2022/11/15 10:10:16;;;;;;;1.50;1.00;;;;;;;19.32;42.04;99518.50;5033118;28;20052;-81
2022/11/15 10:12:49;;;;;;;2.30;1.30;;;;;;;21.30;38.26;99519.34;5031925;28;20065;-79
2022/11/15 10:15:22;;;;;;;1.88;0.98;;;;;;;21.70;37.27;99508.66;5030750;28;20508;-80
2022/11/15 10:18:17;;;;;;;1.75;1.10;;;;;;;22.55;36.46;99500.72;5033061;28;20054;-80
2022/11/15 10:20:50;;;;;;;2.15;1.30;;;;;;;23.33;35.74;99498.31;5028466;28;20057;-79
2022/11/15 10:23:21;;;;;;;2.13;1.00;;;;;;;22.93;34.86;99514.97;5033175;28;20057;-80
2022/11/15 10:25:52;;;;;;;2.15;1.30;;;;;;;24.60;32.59;99486.66;5034928;28;20049;-80
2022/11/15 10:28:24;;;;;;;1.95;1.10;;;;;;;22.80;33.76;99476.97;5032072;28;20494;-81
2022/11/15 10:30:55;;;;;;;2.38;1.10;;;;;;;24.01;32.15;99485.19;5032086;28;20253;-80
2022/11/15 10:33:30;;;;;;;2.75;1.10;;;;;;;24.37;32.21;99461.81;5032894;28;20062;-80
2022/11/15 10:36:17;;;;;;;2.10;1.20;;;;;;;25.28;31.65;99457.66;5041077;28;20045;-89
2022/11/15 10:38:56;;;;;;;2.85;1.00;;;;;;;24.55;32.64;99453.78;5034207;28;20054;-81
2022/11/15 10:41:30;;;;;;;;;;;;;;;24.47;31.61;99444.53;5034898;28;20057;-80
2022/11/15 10:44:24;;;;;;;1.40;1.00;;;;;;;24.41;32.38;99443.44;5031110;28;20297;-81
2022/11/15 10:47:25;;;;;;;2.67;1.30;;;;;;;24.85;31.73;99430.00;5033996;28;20057;-81
2022/11/15 10:50:01;;;;;;;2.13;1.20;;;;;;;26.04;30.58;99436.78;5030653;28;20492;-81
2022/11/15 10:52:31;;;;;;;2.10;1.30;;;;;;;25.47;31.14;99421.81;5026759;28;20424;-80
2022/11/15 10:55:03;;;;;;;1.80;1.30;;;;;;;25.49;29.30;99415.63;5031248;28;20053;-80
2022/11/15 10:57:33;;;;;;;3.28;1.10;;;;;;;25.12;30.14;99415.59;5030773;28;20060;-81
2022/11/15 11:00:04;;;;;;;2.47;1.15;;;;;;;24.75;31.39;99419.63;5030299;28;20418;-81
2022/11/15 11:02:39;;;;;;;2.35;1.10;;;;;;;24.26;31.55;99414.41;5030682;28;20056;-82
2022/11/15 11:05:29;;;;;;;1.98;1.15;;;;;;;24.29;31.26;99410.69;5027671;28;20064;-83
2022/11/15 11:07:59;;;;;;;2.00;1.30;;;;;;;24.34;30.81;99417.13;5029285;28;20403;-82
2022/11/15 11:10:26;;;;;;;2.20;1.27;;;;;;;23.53;32.50;99415.19;5030485;28;20061;-82
2022/11/15 11:12:54;;;;;;;1.73;1.02;;;;;;;23.56;32.52;99414.31;5030468;28;20049;-83
2022/11/15 11:15:25;;;;;;;2.38;1.10;;;;;;;25.21;29.85;99406.47;5029398;28;20057;-82
2022/11/15 11:18:03;;;;;;;1.95;1.00;;;;;;;25.61;29.32;99405.59;5027371;28;20060;-82
2022/11/15 11:20:37;;;;;;;2.13;1.23;;;;;;;25.88;29.51;99406.13;5029748;28;20450;-82
2022/11/15 11:23:23;;;;;;;3.65;1.13;;;;;;;25.61;28.48;99406.38;5030258;28;20509;-84
2022/11/15 11:26:03;;;;;;;3.45;1.20;;;;;;;24.77;30.57;99405.75;5026296;28;20058;-83
2022/11/15 11:28:42;;;;;;;2.30;1.52;;;;;;;25.26;29.61;99410.84;5027867;28;20049;-83
2022/11/15 11:31:25;;;;;;;3.05;1.33;;;;;;;25.97;28.43;99391.28;5030377;28;20060;-83
2022/11/15 11:34:05;;;;;;;2.58;1.30;;;;;;;25.59;28.64;99393.81;5027233;28;20122;-82
2022/11/15 11:36:40;;;;;;;2.00;1.20;;;;;;;27.18;27.40;99376.94;5031180;28;20061;-83
2022/11/15 11:39:25;;;;;;;1.77;1.33;;;;;;;27.50;26.43;99371.03;5022360;28;20057;-85
2022/11/15 11:42:04;;;;;;;2.03;1.50;;;;;;;28.53;24.79;99370.88;5024946;28;20057;-83
2022/11/15 11:44:43;;;;;;;2.42;1.50;;;;;;;28.07;25.61;99361.81;5029959;28;20387;-82
2022/11/15 11:47:12;;;;;;;2.80;1.80;;;;;;;26.89;26.19;99355.72;5032268;28;20445;-82
2022/11/15 11:49:46;;;;;;;2.15;1.90;;;;;;;26.71;25.91;99361.97;5031937;28;20065;-82
2022/11/15 11:52:19;;;;;;;2.25;2.15;;;;;;;27.43;24.69;99354.09;5032215;28;20061;-82
2022/11/15 11:55:02;;;;;;;3.22;3.03;;;;;;;27.26;24.56;99362.00;5031892;28;20050;-82
2022/11/15 11:57:38;;;;;;;3.60;3.40;;;;;;;26.44;25.66;99356.59;5014058;28;20058;-82
2022/11/15 12:00:16;;;;;;;16.05;15.35;;;;;;;27.01;24.29;99339.88;5020141;28;20049;-82
2022/11/15 12:02:48;;;;;;;13.57;12.97;;;;;;;26.45;25.47;99354.53;5032007;28;20390;-82
2022/11/15 12:05:24;;;;;;;5.03;4.60;;;;;;;26.73;24.47;99348.03;5031420;28;20076;-83
2022/11/15 12:07:54;;;;;;;6.28;5.88;;;;;;;27.04;24.35;99346.72;5021549;28;20066;-82
2022/11/15 12:10:25;;;;;;;20.73;19.83;;;;;;;27.19;23.88;99341.38;5017387;28;20053;-82
2022/11/15 12:12:59;;;;;;;8.60;8.23;;;;;;;27.22;23.72;99343.31;5032289;28;20065;-82
2022/11/15 12:15:31;;;;;;;24.27;23.27;;;;;;;26.82;24.64;99349.44;5029468;28;20049;-82
2022/11/15 12:18:02;;;;;;;6.10;5.65;;;;;;;26.49;24.47;99355.25;5031189;28;20068;-82